Aérodrome :
LOGIN :

S'inscrire | Disclaimer

   EN    FR    IT 

 










Légende :    VFR   VFR Marginal   IFR   IFR Intensif   IFR Très Intensif
Visi : 
Plafond : 
>= 8 km
>= 3000ft
5 à 8 km
1000 à 3000 ft
1500m à 5 km
500 à 1000 ft
800 à 1500m
200 à 500 ft
< 800m
< 200 ft
Symboles :   Orages  Brouillard  Fortes neiges  Fortes précipitations  Vent > 20 kt
SIGMETs :   Divers  Orages  Givrage  Turbulence  Onde Orograph.  Cendres Volcan.







- Altitude de l'aérodrome : 83 ft
- Code IATA : LHR
- Voir les cartes d'approche


EGLL - London Heathrow

DERNIER METAR :
  • 151320Z 06005KT 9999 OVC006 14/13 Q1011

METARs EXPIRÉS :
  • 151250Z 05006KT 3000 -RADZ OVC005 13/13 Q1011 TEMPO BKN006
  • 151220Z 04005KT 360V070 3500 -DZ FEW004 OVC008 13/13 Q1011 BECMG 7000
  • 151150Z AUTO 04005KT 360V070 1800 BR OVC004 13/13 Q1011 TEMPO 5000 OVC006
  • 151120Z AUTO 05005KT 010V090 2400 BR OVC005 13/12 Q1011 NOSIG
  • 151050Z AUTO 04005KT 010V070 3900 HZ OVC005 13/12 Q1011 TEMPO 6000

TAF TAF EGLL
Valide du 15 à 12h jusqu'au 16 à 18h UTC


151055Z 1512/1618 04008KT 9999 BKN007
TEMPO 1512/1515 7000 -DZ
PROB30
TEMPO 1512/1515 3000 RADZ BKN004
BECMG 1515/1518 7000
TEMPO 1515/1608 3000 RADZ BR BKN004
PROB30
TEMPO 1516/1607 1200 BKN001
BECMG 1607/1610 9999 NSW BKN014
BECMG 1612/1615 21010KT FEW010
Pas de NOTAMs connus pour ce terrain.
1 SIGMET publié pour la FIR London (EGTT) :
 
Turbulence forte
EGTT SIGMET 04 VALID 151149/151530 EGRR
EGTT LONDON FIR SEV TURB FCST W OF LINE N5500 W00332 - N4957 W00215 FL240/350 MOV E 20KT WKN=



MET'MAP, la Météo Aéronautique d'un coup d'oeil ! - Copyright ORBIFLY Décembre 2007 - Disclaimer

ORBIFLY MET'MAP TEAM :

Programmation & Développement : Alexandra Zaïnal
Conception & Développement : Baudouin d'Aumeries
Co-Programmation & Développement : Marc-Olivier Méhu
Soutien technique & logistique : Manuel Goepfert

Contact : metmap@orbifly.com




SOURCES & CREDITS :

   NOAA